»·PEaware :: N210AR KSMX-KBFL

N210AR :: KSMX-KBFL

FLIGHT INFORMATION

Flight Status: Arrived
Operator: Privately registered:
United States
More flights under this callsign
Pilot: Max S. (16657)
Aircraft: CESSNA 172 SKYHAWK
(C172)
More flights by this aircraft type
Origin: KSMX Santa Maria Pub/Capt Hancock
United States
Destination: KBFL Meadows
United States
More flights between these airports :: More routes between these airports
Route: +
File this flight plan on PilotEdge
Remarks: CAT5
Altitude:
(Current/Filed)
5,500ft
Speed:
(Current/Filed)
100kts
Departed: 28-Sep-17 08:38 AM
Arrived: 28-Sep-17 09:45 AM
Distance/Time
Traveled:
76nm/1:07
Distance/Time
To Go:
Arrived

Flight Plot

Page will automatically refresh every two minutes.


Map Options




Map Legend


Flown Route
Filed Route
Departure Airport
Arrival Airport
Navaid (VOR, NDB)
Fix

Horizontal Profiles

Position Reports

Time Latitude Longitude Heading Altitude Ground
Speed
28-Sep-17 08:16 34.900404 -120.451313 88 265ft 0kts
28-Sep-17 08:17 34.900404 -120.451313 88 265ft 0kts
28-Sep-17 08:18 34.900404 -120.451313 88 265ft 0kts
28-Sep-17 08:19 34.900404 -120.451313 88 265ft 0kts
28-Sep-17 08:20 34.900404 -120.451313 88 265ft 0kts
28-Sep-17 08:21 34.900404 -120.451313 88 265ft 0kts
28-Sep-17 08:22 34.900404 -120.451313 88 265ft 0kts
28-Sep-17 08:23 34.900404 -120.451313 88 265ft 0kts
28-Sep-17 08:24 34.900404 -120.451313 88 265ft 0kts
28-Sep-17 08:25 34.900404 -120.451313 88 265ft 0kts
28-Sep-17 08:26 34.900404 -120.451313 88 265ft 0kts
28-Sep-17 08:27 34.900404 -120.451313 88 265ft 0kts
28-Sep-17 08:28 34.900404 -120.451313 88 265ft 0kts
28-Sep-17 08:29 34.900108 -120.451088 165 265ft 9kts
28-Sep-17 08:30 34.898196 -120.449739 134 265ft 16kts
28-Sep-17 08:31 34.895977 -120.447085 135 265ft 18kts
28-Sep-17 08:32 34.893413 -120.444681 187 265ft 10kts
28-Sep-17 08:33 34.893343 -120.444716 209 265ft 0kts
28-Sep-17 08:34 34.893343 -120.444716 209 265ft 0kts
28-Sep-17 08:35 34.893343 -120.444716 209 265ft 0kts
28-Sep-17 08:36 34.893343 -120.444716 209 265ft 0kts
28-Sep-17 08:37 34.893343 -120.444716 209 265ft 0kts
28-Sep-17 08:38 34.893343 -120.444716 209 265ft 0kts
28-Sep-17 08:39 34.893343 -120.444716 209 265ft 0kts
28-Sep-17 08:40 34.893343 -120.444716 209 265ft 0kts
28-Sep-17 08:41 34.893118 -120.444890 220 265ft 12kts
28-Sep-17 08:42 34.898981 -120.454511 310 616ft 64kts
28-Sep-17 08:43 34.905691 -120.466454 309 1194ft 63kts
28-Sep-17 08:44 34.912535 -120.465098 52 1613ft 60kts
28-Sep-17 08:45 34.918631 -120.452501 71 2162ft 65kts
28-Sep-17 08:46 34.917978 -120.440136 89 2676ft 59kts
28-Sep-17 08:47 34.917969 -120.430100 82 3050ft 59kts
28-Sep-17 08:48 34.919366 -120.415840 75 3585ft 58kts
28-Sep-17 08:49 34.921051 -120.405756 71 3963ft 57kts
28-Sep-17 08:50 34.924123 -120.391543 68 4481ft 57kts
28-Sep-17 08:51 34.926644 -120.381550 68 4840ft 57kts
28-Sep-17 08:52 34.929934 -120.369642 67 5262ft 57kts
28-Sep-17 08:53 34.933639 -120.356898 67 5545ft 77kts
28-Sep-17 08:54 34.940149 -120.335738 67 5522ft 109kts
28-Sep-17 08:55 34.947867 -120.311145 66 5511ft 113kts
28-Sep-17 08:56 34.956126 -120.285299 67 5512ft 115kts
28-Sep-17 08:57 34.964903 -120.258333 66 5484ft 118kts
28-Sep-17 08:58 34.973404 -120.232229 66 5474ft 115kts
28-Sep-17 08:59 34.981185 -120.208203 67 5470ft 104kts
28-Sep-17 09:00 34.988694 -120.185196 66 5475ft 102kts
28-Sep-17 09:01 34.996324 -120.161880 66 5477ft 105kts
28-Sep-17 09:02 35.004208 -120.137611 65 5473ft 107kts
28-Sep-17 09:03 35.012193 -120.113066 65 5475ft 106kts
28-Sep-17 09:04 35.020208 -120.088513 66 5474ft 107kts
28-Sep-17 09:05 35.028192 -120.063842 66 5476ft 107kts
28-Sep-17 09:06 35.036061 -120.039547 65 5473ft 107kts
28-Sep-17 09:07 35.044226 -120.014474 67 5485ft 106kts
28-Sep-17 09:08 35.052087 -119.990140 66 5484ft 106kts
28-Sep-17 09:09 35.060087 -119.965445 66 5482ft 108kts
28-Sep-17 09:10 35.068131 -119.940582 66 5482ft 108kts
28-Sep-17 09:11 35.076279 -119.915447 66 5481ft 108kts
28-Sep-17 09:12 35.084438 -119.890187 67 5481ft 108kts
28-Sep-17 09:13 35.094146 -119.861968 62 5512ft 111kts
28-Sep-17 09:14 35.104873 -119.836414 61 5513ft 114kts
28-Sep-17 09:15 35.116226 -119.809629 61 5512ft 114kts
28-Sep-17 09:16 35.127751 -119.782512 61 5512ft 114kts
28-Sep-17 09:17 35.139275 -119.755422 61 5511ft 114kts
28-Sep-17 09:18 35.150716 -119.728488 61 5514ft 114kts
28-Sep-17 09:19 35.161869 -119.702230 61 5517ft 113kts
28-Sep-17 09:20 35.173055 -119.675891 61 5520ft 113kts
28-Sep-17 09:21 35.183926 -119.650283 61 5523ft 112kts
28-Sep-17 09:22 35.194606 -119.625086 61 5526ft 111kts
28-Sep-17 09:23 35.204904 -119.600780 61 5529ft 111kts
28-Sep-17 09:24 35.215628 -119.576036 64 5532ft 114kts
28-Sep-17 09:25 35.226485 -119.550590 63 5535ft 116kts
28-Sep-17 09:26 35.237593 -119.524345 63 5538ft 117kts
28-Sep-17 09:27 35.248644 -119.498190 63 5539ft 118kts
28-Sep-17 09:28 35.260332 -119.470492 63 5539ft 118kts
28-Sep-17 09:29 35.271622 -119.443716 63 5539ft 118kts
28-Sep-17 09:30 35.282904 -119.416931 63 5539ft 118kts
28-Sep-17 09:31 35.294157 -119.390196 63 5539ft 118kts
28-Sep-17 09:32 35.305703 -119.362730 63 5539ft 118kts
28-Sep-17 09:33 35.316881 -119.336130 64 5538ft 118kts
28-Sep-17 09:34 35.328449 -119.308579 64 5536ft 118kts
28-Sep-17 09:35 35.340909 -119.278880 64 5501ft 119kts
28-Sep-17 09:36 35.353125 -119.249728 64 5502ft 118kts
28-Sep-17 09:37 35.363911 -119.223969 64 5502ft 118kts
28-Sep-17 09:38 35.374349 -119.198989 65 5496ft 113kts
28-Sep-17 09:39 35.377671 -119.172955 95 4376ft 129kts
28-Sep-17 09:40 35.376267 -119.147320 93 3205ft 127kts
28-Sep-17 09:41 35.375996 -119.122463 91 1978ft 125kts
28-Sep-17 09:42 35.382831 -119.101961 46 1427ft 97kts
28-Sep-17 09:43 35.392245 -119.090069 60 1450ft 73kts
28-Sep-17 09:44 35.398819 -119.078208 56 1529ft 62kts
28-Sep-17 09:45 35.405364 -119.067695 55 1567ft 65kts
28-Sep-17 09:46 35.412643 -119.056567 58 1315ft 71kts
28-Sep-17 09:47 35.420076 -119.045502 48 787ft 70kts
28-Sep-17 09:48 35.429819 -119.051281 313 553ft 63kts
28-Sep-17 09:49 35.436191 -119.057960 45 510ft 18kts
28-Sep-17 09:50 35.436315 -119.057618 73 510ft 0kts
28-Sep-17 09:51 35.436315 -119.057618 73 510ft 0kts
28-Sep-17 09:52 35.436315 -119.057618 73 510ft 0kts
28-Sep-17 09:53 35.435265 -119.055678 135 510ft 22kts
28-Sep-17 09:54 35.432048 -119.051876 136 510ft 26kts
28-Sep-17 09:55 35.430419 -119.049808 132 510ft 9kts
28-Sep-17 09:56 35.429407 -119.047718 48 510ft 12kts
28-Sep-17 09:57 35.429388 -119.046904 133 510ft 9kts
28-Sep-17 09:58 35.429158 -119.046017 160 510ft 0kts
28-Sep-17 09:59 35.429158 -119.046017 160 510ft 0kts
28-Sep-17 10:00 35.429158 -119.046017 160 510ft 0kts

Navigation Log

Ident Type
1. KSMX Airport
2. KBFL Airport